sensor_id;sensor_type;location;lat;lon;timestamp;P1;durP1;ratioP1;P2;durP2;ratioP2
34030;SDS011;20319;28.466;-16.274;2023-11-21T00:00:19;1.08;;;0.75;;
34030;SDS011;20319;28.466;-16.274;2023-11-21T00:02:44;1.70;;;0.75;;
34030;SDS011;20319;28.466;-16.274;2023-11-21T00:05:11;2.03;;;0.80;;
34030;SDS011;20319;28.466;-16.274;2023-11-21T00:07:39;0.95;;;0.63;;
34030;SDS011;20319;28.466;-16.274;2023-11-21T00:10:06;2.08;;;0.80;;
34030;SDS011;20319;28.466;-16.274;2023-11-21T00:12:33;2.63;;;0.70;;
34030;SDS011;20319;28.466;-16.274;2023-11-21T00:15:00;0.70;;;0.52;;
34030;SDS011;20319;28.466;-16.274;2023-11-21T00:17:26;0.93;;;0.57;;
34030;SDS011;20319;28.466;-16.274;2023-11-21T00:19:52;0.40;;;0.40;;
34030;SDS011;20319;28.466;-16.274;2023-11-21T00:22:18;1.20;;;0.70;;
34030;SDS011;20319;28.466;-16.274;2023-11-21T00:24:43;0.65;;;0.50;;
34030;SDS011;20319;28.466;-16.274;2023-11-21T00:27:09;1.35;;;0.70;;
34030;SDS011;20319;28.466;-16.274;2023-11-21T00:29:35;0.55;;;0.52;;
34030;SDS011;20319;28.466;-16.274;2023-11-21T00:32:01;0.40;;;0.40;;
34030;SDS011;20319;28.466;-16.274;2023-11-21T00:34:27;0.77;;;0.50;;
34030;SDS011;20319;28.466;-16.274;2023-11-21T00:36:52;0.68;;;0.57;;
34030;SDS011;20319;28.466;-16.274;2023-11-21T00:39:18;2.13;;;0.55;;
34030;SDS011;20319;28.466;-16.274;2023-11-21T00:41:43;1.17;;;0.40;;
34030;SDS011;20319;28.466;-16.274;2023-11-21T00:44:10;1.50;;;0.60;;
34030;SDS011;20319;28.466;-16.274;2023-11-21T00:46:36;1.65;;;0.70;;
34030;SDS011;20319;28.466;-16.274;2023-11-21T00:49:02;2.35;;;0.65;;
34030;SDS011;20319;28.466;-16.274;2023-11-21T00:51:29;0.95;;;0.60;;
34030;SDS011;20319;28.466;-16.274;2023-11-21T00:53:55;3.20;;;0.60;;
34030;SDS011;20319;28.466;-16.274;2023-11-21T00:56:21;3.97;;;0.80;;
34030;SDS011;20319;28.466;-16.274;2023-11-21T00:58:47;1.42;;;0.70;;
34030;SDS011;20319;28.466;-16.274;2023-11-21T01:01:15;1.85;;;0.70;;
34030;SDS011;20319;28.466;-16.274;2023-11-21T01:03:41;2.83;;;0.70;;
34030;SDS011;20319;28.466;-16.274;2023-11-21T01:06:07;0.77;;;0.60;;
34030;SDS011;20319;28.466;-16.274;2023-11-21T01:08:34;1.92;;;0.70;;
34030;SDS011;20319;28.466;-16.274;2023-11-21T01:10:59;1.17;;;0.70;;
34030;SDS011;20319;28.466;-16.274;2023-11-21T01:13:25;2.65;;;0.80;;
34030;SDS011;20319;28.466;-16.274;2023-11-21T01:15:54;2.50;;;0.80;;
34030;SDS011;20319;28.466;-16.274;2023-11-21T01:18:20;2.15;;;0.68;;
34030;SDS011;20319;28.466;-16.274;2023-11-21T01:20:46;1.23;;;0.70;;
34030;SDS011;20319;28.466;-16.274;2023-11-21T01:23:15;1.48;;;0.70;;
34030;SDS011;20319;28.466;-16.274;2023-11-21T01:25:40;1.02;;;0.70;;
34030;SDS011;20319;28.466;-16.274;2023-11-21T01:28:06;3.63;;;0.77;;
34030;SDS011;20319;28.466;-16.274;2023-11-21T01:30:32;2.65;;;0.90;;
34030;SDS011;20319;28.466;-16.274;2023-11-21T01:32:58;2.83;;;1.10;;
34030;SDS011;20319;28.466;-16.274;2023-11-21T01:35:24;2.47;;;0.85;;
34030;SDS011;20319;28.466;-16.274;2023-11-21T01:37:49;1.92;;;0.70;;
34030;SDS011;20319;28.466;-16.274;2023-11-21T01:40:15;2.20;;;1.20;;
34030;SDS011;20319;28.466;-16.274;2023-11-21T01:42:41;3.42;;;1.05;;
34030;SDS011;20319;28.466;-16.274;2023-11-21T01:45:09;2.50;;;0.95;;
34030;SDS011;20319;28.466;-16.274;2023-11-21T01:47:35;3.53;;;1.08;;
34030;SDS011;20319;28.466;-16.274;2023-11-21T01:50:02;3.60;;;1.02;;
34030;SDS011;20319;28.466;-16.274;2023-11-21T01:52:32;3.70;;;1.05;;
34030;SDS011;20319;28.466;-16.274;2023-11-21T01:55:02;1.98;;;0.80;;
34030;SDS011;20319;28.466;-16.274;2023-11-21T01:57:28;2.70;;;1.02;;
34030;SDS011;20319;28.466;-16.274;2023-11-21T01:59:54;1.55;;;1.00;;
34030;SDS011;20319;28.466;-16.274;2023-11-21T02:02:23;2.22;;;1.05;;
34030;SDS011;20319;28.466;-16.274;2023-11-21T02:04:49;3.05;;;1.10;;
34030;SDS011;20319;28.466;-16.274;2023-11-21T02:07:15;3.60;;;0.77;;
34030;SDS011;20319;28.466;-16.274;2023-11-21T02:09:40;4.50;;;1.02;;
34030;SDS011;20319;28.466;-16.274;2023-11-21T02:12:07;1.98;;;1.00;;
34030;SDS011;20319;28.466;-16.274;2023-11-21T02:14:35;4.32;;;1.08;;
34030;SDS011;20319;28.466;-16.274;2023-11-21T02:17:01;4.30;;;0.90;;
34030;SDS011;20319;28.466;-16.274;2023-11-21T02:19:28;8.65;;;1.30;;
34030;SDS011;20319;28.466;-16.274;2023-11-21T02:21:56;2.95;;;1.13;;
34030;SDS011;20319;28.466;-16.274;2023-11-21T02:24:29;2.25;;;1.02;;
34030;SDS011;20319;28.466;-16.274;2023-11-21T02:26:55;2.85;;;1.00;;
34030;SDS011;20319;28.466;-16.274;2023-11-21T02:29:21;4.85;;;1.13;;
34030;SDS011;20319;28.466;-16.274;2023-11-21T02:31:55;4.32;;;1.33;;
34030;SDS011;20319;28.466;-16.274;2023-11-21T02:34:22;5.75;;;1.20;;
34030;SDS011;20319;28.466;-16.274;2023-11-21T02:36:48;3.38;;;1.17;;
34030;SDS011;20319;28.466;-16.274;2023-11-21T02:39:17;5.32;;;1.55;;
34030;SDS011;20319;28.466;-16.274;2023-11-21T02:41:43;7.03;;;1.80;;
34030;SDS011;20319;28.466;-16.274;2023-11-21T02:44:09;5.68;;;1.35;;
34030;SDS011;20319;28.466;-16.274;2023-11-21T02:46:35;7.07;;;1.98;;
34030;SDS011;20319;28.466;-16.274;2023-11-21T02:49:02;8.70;;;1.73;;
34030;SDS011;20319;28.466;-16.274;2023-11-21T02:51:29;8.38;;;1.60;;
34030;SDS011;20319;28.466;-16.274;2023-11-21T02:53:55;6.90;;;1.52;;
34030;SDS011;20319;28.466;-16.274;2023-11-21T02:56:25;9.13;;;1.65;;
34030;SDS011;20319;28.466;-16.274;2023-11-21T02:58:51;6.63;;;1.90;;
34030;SDS011;20319;28.466;-16.274;2023-11-21T03:01:18;10.65;;;1.95;;
34030;SDS011;20319;28.466;-16.274;2023-11-21T03:03:43;8.13;;;1.75;;
34030;SDS011;20319;28.466;-16.274;2023-11-21T03:06:09;5.93;;;1.50;;
34030;SDS011;20319;28.466;-16.274;2023-11-21T03:08:34;10.60;;;1.70;;
34030;SDS011;20319;28.466;-16.274;2023-11-21T03:11:00;8.50;;;2.00;;
34030;SDS011;20319;28.466;-16.274;2023-11-21T03:13:28;6.05;;;2.15;;
34030;SDS011;20319;28.466;-16.274;2023-11-21T03:15:56;6.20;;;1.90;;
34030;SDS011;20319;28.466;-16.274;2023-11-21T03:18:21;8.20;;;1.80;;
34030;SDS011;20319;28.466;-16.274;2023-11-21T03:20:47;9.45;;;2.00;;
34030;SDS011;20319;28.466;-16.274;2023-11-21T03:23:13;10.05;;;1.83;;
34030;SDS011;20319;28.466;-16.274;2023-11-21T03:25:40;9.85;;;1.70;;
34030;SDS011;20319;28.466;-16.274;2023-11-21T03:28:05;8.32;;;2.10;;
34030;SDS011;20319;28.466;-16.274;2023-11-21T03:30:33;11.65;;;2.30;;
34030;SDS011;20319;28.466;-16.274;2023-11-21T03:32:59;12.07;;;1.85;;
34030;SDS011;20319;28.466;-16.274;2023-11-21T03:35:24;9.13;;;1.70;;
34030;SDS011;20319;28.466;-16.274;2023-11-21T03:37:50;7.97;;;1.42;;
34030;SDS011;20319;28.466;-16.274;2023-11-21T03:40:16;7.72;;;1.92;;
34030;SDS011;20319;28.466;-16.274;2023-11-21T03:42:42;7.32;;;1.80;;
34030;SDS011;20319;28.466;-16.274;2023-11-21T03:45:07;7.32;;;1.95;;
34030;SDS011;20319;28.466;-16.274;2023-11-21T03:47:34;13.02;;;2.28;;
34030;SDS011;20319;28.466;-16.274;2023-11-21T03:49:59;7.35;;;1.90;;
34030;SDS011;20319;28.466;-16.274;2023-11-21T03:52:26;6.15;;;1.70;;
34030;SDS011;20319;28.466;-16.274;2023-11-21T03:54:53;13.07;;;2.45;;
34030;SDS011;20319;28.466;-16.274;2023-11-21T03:57:20;9.45;;;2.30;;
34030;SDS011;20319;28.466;-16.274;2023-11-21T03:59:46;12.40;;;2.08;;
34030;SDS011;20319;28.466;-16.274;2023-11-21T04:02:11;6.95;;;2.10;;
34030;SDS011;20319;28.466;-16.274;2023-11-21T04:04:37;16.40;;;2.10;;
34030;SDS011;20319;28.466;-16.274;2023-11-21T04:07:03;12.55;;;2.15;;
34030;SDS011;20319;28.466;-16.274;2023-11-21T04:09:29;9.05;;;1.95;;
34030;SDS011;20319;28.466;-16.274;2023-11-21T04:11:55;9.52;;;2.08;;
34030;SDS011;20319;28.466;-16.274;2023-11-21T04:14:20;13.48;;;2.63;;
34030;SDS011;20319;28.466;-16.274;2023-11-21T04:16:46;11.25;;;2.33;;
34030;SDS011;20319;28.466;-16.274;2023-11-21T04:19:12;10.60;;;2.33;;
34030;SDS011;20319;28.466;-16.274;2023-11-21T04:21:43;10.48;;;2.22;;
34030;SDS011;20319;28.466;-16.274;2023-11-21T04:24:08;11.38;;;2.05;;
34030;SDS011;20319;28.466;-16.274;2023-11-21T04:26:34;9.32;;;1.90;;
34030;SDS011;20319;28.466;-16.274;2023-11-21T04:29:00;7.45;;;1.95;;
34030;SDS011;20319;28.466;-16.274;2023-11-21T04:31:26;8.32;;;2.20;;
34030;SDS011;20319;28.466;-16.274;2023-11-21T04:33:51;9.18;;;1.73;;
34030;SDS011;20319;28.466;-16.274;2023-11-21T04:36:17;10.70;;;2.00;;
34030;SDS011;20319;28.466;-16.274;2023-11-21T04:38:42;11.05;;;2.13;;
34030;SDS011;20319;28.466;-16.274;2023-11-21T04:41:09;5.03;;;1.60;;
34030;SDS011;20319;28.466;-16.274;2023-11-21T04:43:34;6.97;;;1.70;;
34030;SDS011;20319;28.466;-16.274;2023-11-21T04:46:00;4.82;;;1.20;;
34030;SDS011;20319;28.466;-16.274;2023-11-21T04:48:27;6.55;;;1.60;;
34030;SDS011;20319;28.466;-16.274;2023-11-21T04:50:52;5.53;;;1.63;;
34030;SDS011;20319;28.466;-16.274;2023-11-21T04:53:18;6.40;;;1.90;;
34030;SDS011;20319;28.466;-16.274;2023-11-21T04:55:43;7.05;;;1.58;;
34030;SDS011;20319;28.466;-16.274;2023-11-21T04:58:10;13.18;;;2.13;;
34030;SDS011;20319;28.466;-16.274;2023-11-21T05:00:37;5.63;;;2.00;;
34030;SDS011;20319;28.466;-16.274;2023-11-21T05:03:03;6.63;;;1.70;;
34030;SDS011;20319;28.466;-16.274;2023-11-21T05:05:30;6.65;;;1.52;;
34030;SDS011;20319;28.466;-16.274;2023-11-21T05:07:55;7.38;;;1.60;;
34030;SDS011;20319;28.466;-16.274;2023-11-21T05:10:21;7.30;;;1.35;;
34030;SDS011;20319;28.466;-16.274;2023-11-21T05:12:47;6.72;;;1.00;;
34030;SDS011;20319;28.466;-16.274;2023-11-21T05:15:15;8.48;;;1.27;;
34030;SDS011;20319;28.466;-16.274;2023-11-21T05:17:42;6.82;;;1.60;;
34030;SDS011;20319;28.466;-16.274;2023-11-21T05:20:15;5.85;;;1.15;;
34030;SDS011;20319;28.466;-16.274;2023-11-21T05:22:50;9.82;;;1.40;;
34030;SDS011;20319;28.466;-16.274;2023-11-21T05:25:16;8.73;;;1.50;;
34030;SDS011;20319;28.466;-16.274;2023-11-21T05:27:47;6.70;;;1.40;;
34030;SDS011;20319;28.466;-16.274;2023-11-21T05:30:13;5.05;;;1.52;;
34030;SDS011;20319;28.466;-16.274;2023-11-21T05:32:39;5.43;;;1.92;;
34030;SDS011;20319;28.466;-16.274;2023-11-21T05:35:07;8.48;;;1.50;;
34030;SDS011;20319;28.466;-16.274;2023-11-21T05:37:37;4.40;;;1.58;;
34030;SDS011;20319;28.466;-16.274;2023-11-21T05:40:07;4.60;;;1.17;;
34030;SDS011;20319;28.466;-16.274;2023-11-21T05:42:33;4.50;;;1.30;;
34030;SDS011;20319;28.466;-16.274;2023-11-21T05:45:00;3.75;;;1.20;;
34030;SDS011;20319;28.466;-16.274;2023-11-21T05:47:37;6.30;;;1.10;;
34030;SDS011;20319;28.466;-16.274;2023-11-21T05:50:03;4.78;;;1.40;;
34030;SDS011;20319;28.466;-16.274;2023-11-21T05:52:30;5.70;;;1.00;;
34030;SDS011;20319;28.466;-16.274;2023-11-21T05:54:57;4.90;;;1.35;;
34030;SDS011;20319;28.466;-16.274;2023-11-21T05:57:23;5.72;;;1.23;;
34030;SDS011;20319;28.466;-16.274;2023-11-21T05:59:48;3.75;;;1.13;;
34030;SDS011;20319;28.466;-16.274;2023-11-21T06:02:14;3.95;;;1.08;;
34030;SDS011;20319;28.466;-16.274;2023-11-21T06:04:40;2.72;;;1.00;;
34030;SDS011;20319;28.466;-16.274;2023-11-21T06:07:05;2.33;;;1.05;;
34030;SDS011;20319;28.466;-16.274;2023-11-21T06:09:31;4.03;;;1.05;;
34030;SDS011;20319;28.466;-16.274;2023-11-21T06:11:56;3.95;;;1.08;;
34030;SDS011;20319;28.466;-16.274;2023-11-21T06:14:22;1.70;;;0.57;;
34030;SDS011;20319;28.466;-16.274;2023-11-21T06:16:48;2.70;;;0.80;;
34030;SDS011;20319;28.466;-16.274;2023-11-21T06:19:16;2.00;;;0.70;;
34030;SDS011;20319;28.466;-16.274;2023-11-21T06:21:45;4.90;;;0.80;;
34030;SDS011;20319;28.466;-16.274;2023-11-21T06:24:11;2.50;;;0.68;;
34030;SDS011;20319;28.466;-16.274;2023-11-21T06:26:37;3.45;;;0.70;;
34030;SDS011;20319;28.466;-16.274;2023-11-21T06:29:03;5.03;;;1.08;;
34030;SDS011;20319;28.466;-16.274;2023-11-21T06:31:29;1.90;;;1.15;;
34030;SDS011;20319;28.466;-16.274;2023-11-21T06:33:55;1.30;;;0.50;;
34030;SDS011;20319;28.466;-16.274;2023-11-21T06:36:21;3.38;;;0.70;;
34030;SDS011;20319;28.466;-16.274;2023-11-21T06:38:46;3.15;;;0.80;;
34030;SDS011;20319;28.466;-16.274;2023-11-21T06:41:12;0.75;;;0.45;;
34030;SDS011;20319;28.466;-16.274;2023-11-21T06:43:41;3.00;;;0.63;;
34030;SDS011;20319;28.466;-16.274;2023-11-21T06:46:11;1.95;;;0.98;;
34030;SDS011;20319;28.466;-16.274;2023-11-21T06:48:37;1.58;;;0.50;;
34030;SDS011;20319;28.466;-16.274;2023-11-21T06:51:03;2.13;;;0.50;;
34030;SDS011;20319;28.466;-16.274;2023-11-21T06:53:29;4.97;;;0.77;;
34030;SDS011;20319;28.466;-16.274;2023-11-21T06:55:55;1.80;;;0.50;;
34030;SDS011;20319;28.466;-16.274;2023-11-21T06:58:20;4.65;;;0.73;;
34030;SDS011;20319;28.466;-16.274;2023-11-21T07:00:46;1.67;;;0.65;;
34030;SDS011;20319;28.466;-16.274;2023-11-21T07:03:13;3.55;;;0.80;;
34030;SDS011;20319;28.466;-16.274;2023-11-21T16:54:05;8.40;;;3.15;;
34030;SDS011;20319;28.466;-16.274;2023-11-21T16:56:31;9.48;;;3.03;;
34030;SDS011;20319;28.466;-16.274;2023-11-21T16:58:57;9.75;;;2.60;;
34030;SDS011;20319;28.466;-16.274;2023-11-21T17:01:23;11.15;;;2.40;;
34030;SDS011;20319;28.466;-16.274;2023-11-21T17:03:50;8.27;;;2.53;;
34030;SDS011;20319;28.466;-16.274;2023-11-21T17:06:16;6.35;;;2.55;;
34030;SDS011;20319;28.466;-16.274;2023-11-21T17:08:42;6.65;;;2.25;;
34030;SDS011;20319;28.466;-16.274;2023-11-21T17:11:09;8.02;;;2.33;;
34030;SDS011;20319;28.466;-16.274;2023-11-21T17:13:39;6.20;;;2.22;;
34030;SDS011;20319;28.466;-16.274;2023-11-21T17:16:05;9.00;;;2.83;;
34030;SDS011;20319;28.466;-16.274;2023-11-21T17:18:31;5.95;;;2.22;;
34030;SDS011;20319;28.466;-16.274;2023-11-21T17:20:56;7.30;;;2.53;;
34030;SDS011;20319;28.466;-16.274;2023-11-21T17:23:22;8.32;;;2.15;;
34030;SDS011;20319;28.466;-16.274;2023-11-21T17:25:47;6.25;;;2.05;;
34030;SDS011;20319;28.466;-16.274;2023-11-21T17:28:13;6.47;;;1.40;;
34030;SDS011;20319;28.466;-16.274;2023-11-21T17:30:39;7.70;;;2.10;;
34030;SDS011;20319;28.466;-16.274;2023-11-21T17:33:05;4.65;;;1.98;;
34030;SDS011;20319;28.466;-16.274;2023-11-21T17:35:32;4.68;;;1.55;;
34030;SDS011;20319;28.466;-16.274;2023-11-21T17:37:58;4.15;;;1.73;;
34030;SDS011;20319;28.466;-16.274;2023-11-21T17:40:24;3.63;;;1.80;;
34030;SDS011;20319;28.466;-16.274;2023-11-21T17:42:51;5.05;;;1.60;;
34030;SDS011;20319;28.466;-16.274;2023-11-21T17:45:17;8.30;;;2.90;;
34030;SDS011;20319;28.466;-16.274;2023-11-21T17:47:43;5.18;;;1.60;;
34030;SDS011;20319;28.466;-16.274;2023-11-21T17:50:08;4.60;;;2.00;;
34030;SDS011;20319;28.466;-16.274;2023-11-21T17:52:35;5.10;;;1.60;;
34030;SDS011;20319;28.466;-16.274;2023-11-21T17:55:02;6.57;;;1.90;;
34030;SDS011;20319;28.466;-16.274;2023-11-21T17:57:30;7.68;;;1.80;;
34030;SDS011;20319;28.466;-16.274;2023-11-21T18:00:01;5.93;;;2.25;;
34030;SDS011;20319;28.466;-16.274;2023-11-21T18:02:30;5.25;;;2.03;;
34030;SDS011;20319;28.466;-16.274;2023-11-21T18:04:57;6.93;;;2.22;;
34030;SDS011;20319;28.466;-16.274;2023-11-21T18:07:26;28.80;;;17.85;;
34030;SDS011;20319;28.466;-16.274;2023-11-21T18:09:52;13.05;;;4.75;;
34030;SDS011;20319;28.466;-16.274;2023-11-21T18:12:17;6.68;;;2.60;;
34030;SDS011;20319;28.466;-16.274;2023-11-21T18:14:44;6.97;;;2.45;;
34030;SDS011;20319;28.466;-16.274;2023-11-21T18:17:13;26.73;;;15.65;;
34030;SDS011;20319;28.466;-16.274;2023-11-21T18:19:42;28.70;;;17.25;;
34030;SDS011;20319;28.466;-16.274;2023-11-21T18:22:11;18.50;;;9.32;;
34030;SDS011;20319;28.466;-16.274;2023-11-21T18:24:36;10.93;;;6.10;;
34030;SDS011;20319;28.466;-16.274;2023-11-21T18:27:04;10.95;;;4.60;;
34030;SDS011;20319;28.466;-16.274;2023-11-21T18:29:30;14.10;;;6.75;;
34030;SDS011;20319;28.466;-16.274;2023-11-21T18:31:56;12.10;;;4.63;;
34030;SDS011;20319;28.466;-16.274;2023-11-21T18:34:21;9.38;;;3.65;;
34030;SDS011;20319;28.466;-16.274;2023-11-21T18:36:49;6.40;;;1.98;;
34030;SDS011;20319;28.466;-16.274;2023-11-21T18:39:15;4.88;;;1.88;;
34030;SDS011;20319;28.466;-16.274;2023-11-21T18:41:45;8.90;;;4.82;;
34030;SDS011;20319;28.466;-16.274;2023-11-21T18:44:11;9.75;;;2.95;;
34030;SDS011;20319;28.466;-16.274;2023-11-21T18:46:37;8.23;;;3.17;;
34030;SDS011;20319;28.466;-16.274;2023-11-21T18:49:03;6.55;;;2.75;;
34030;SDS011;20319;28.466;-16.274;2023-11-21T18:51:29;7.68;;;2.75;;
34030;SDS011;20319;28.466;-16.274;2023-11-21T18:53:54;5.13;;;2.47;;
34030;SDS011;20319;28.466;-16.274;2023-11-21T18:56:20;4.93;;;2.33;;
34030;SDS011;20319;28.466;-16.274;2023-11-21T18:58:48;8.50;;;2.20;;
34030;SDS011;20319;28.466;-16.274;2023-11-21T19:01:27;7.22;;;2.65;;
34030;SDS011;20319;28.466;-16.274;2023-11-21T19:03:55;6.82;;;2.05;;
34030;SDS011;20319;28.466;-16.274;2023-11-21T19:06:23;5.30;;;2.53;;
34030;SDS011;20319;28.466;-16.274;2023-11-21T19:08:50;6.13;;;2.03;;
34030;SDS011;20319;28.466;-16.274;2023-11-21T19:11:16;5.30;;;1.90;;
34030;SDS011;20319;28.466;-16.274;2023-11-21T19:13:42;8.88;;;2.47;;
34030;SDS011;20319;28.466;-16.274;2023-11-21T19:16:08;7.97;;;1.95;;
34030;SDS011;20319;28.466;-16.274;2023-11-21T19:18:38;8.07;;;2.20;;
34030;SDS011;20319;28.466;-16.274;2023-11-21T19:21:06;5.75;;;1.83;;
34030;SDS011;20319;28.466;-16.274;2023-11-21T19:23:36;4.88;;;2.00;;
34030;SDS011;20319;28.466;-16.274;2023-11-21T19:26:02;6.05;;;1.80;;
34030;SDS011;20319;28.466;-16.274;2023-11-21T19:28:27;5.68;;;1.83;;
34030;SDS011;20319;28.466;-16.274;2023-11-21T19:30:53;7.47;;;2.05;;
34030;SDS011;20319;28.466;-16.274;2023-11-21T19:33:20;6.90;;;1.70;;
34030;SDS011;20319;28.466;-16.274;2023-11-21T19:35:46;5.65;;;1.77;;
34030;SDS011;20319;28.466;-16.274;2023-11-21T19:38:11;6.10;;;2.10;;
34030;SDS011;20319;28.466;-16.274;2023-11-21T19:40:37;6.53;;;2.17;;
34030;SDS011;20319;28.466;-16.274;2023-11-21T19:43:05;7.97;;;1.85;;
34030;SDS011;20319;28.466;-16.274;2023-11-21T19:45:30;5.47;;;2.15;;
34030;SDS011;20319;28.466;-16.274;2023-11-21T19:47:59;7.65;;;2.20;;
34030;SDS011;20319;28.466;-16.274;2023-11-21T19:50:25;6.10;;;1.92;;
34030;SDS011;20319;28.466;-16.274;2023-11-21T19:52:51;7.88;;;1.83;;
34030;SDS011;20319;28.466;-16.274;2023-11-21T19:55:17;5.50;;;1.85;;
34030;SDS011;20319;28.466;-16.274;2023-11-21T19:57:43;3.58;;;1.30;;
34030;SDS011;20319;28.466;-16.274;2023-11-21T20:00:09;6.20;;;1.92;;
34030;SDS011;20319;28.466;-16.274;2023-11-21T20:02:40;2.60;;;1.35;;
34030;SDS011;20319;28.466;-16.274;2023-11-21T20:05:09;5.38;;;1.50;;
34030;SDS011;20319;28.466;-16.274;2023-11-21T20:07:35;4.45;;;1.20;;
34030;SDS011;20319;28.466;-16.274;2023-11-21T20:10:01;4.97;;;1.42;;
34030;SDS011;20319;28.466;-16.274;2023-11-21T20:12:27;3.67;;;1.17;;
34030;SDS011;20319;28.466;-16.274;2023-11-21T20:14:54;5.85;;;1.38;;
34030;SDS011;20319;28.466;-16.274;2023-11-21T20:17:20;2.35;;;1.00;;
34030;SDS011;20319;28.466;-16.274;2023-11-21T20:19:46;4.00;;;0.90;;
34030;SDS011;20319;28.466;-16.274;2023-11-21T20:22:12;3.08;;;1.00;;
34030;SDS011;20319;28.466;-16.274;2023-11-21T20:24:38;5.45;;;1.35;;
34030;SDS011;20319;28.466;-16.274;2023-11-21T20:27:04;3.10;;;1.15;;
34030;SDS011;20319;28.466;-16.274;2023-11-21T20:29:31;3.30;;;1.17;;
34030;SDS011;20319;28.466;-16.274;2023-11-21T20:31:58;2.53;;;1.10;;
34030;SDS011;20319;28.466;-16.274;2023-11-21T20:34:23;2.92;;;1.08;;
34030;SDS011;20319;28.466;-16.274;2023-11-21T20:36:49;2.95;;;0.90;;
34030;SDS011;20319;28.466;-16.274;2023-11-21T20:39:16;2.63;;;0.88;;
34030;SDS011;20319;28.466;-16.274;2023-11-21T20:41:41;2.95;;;1.40;;
34030;SDS011;20319;28.466;-16.274;2023-11-21T20:44:08;2.55;;;0.90;;
34030;SDS011;20319;28.466;-16.274;2023-11-21T20:46:43;2.75;;;0.70;;
34030;SDS011;20319;28.466;-16.274;2023-11-21T20:49:11;2.47;;;0.95;;
34030;SDS011;20319;28.466;-16.274;2023-11-21T20:51:38;3.08;;;0.90;;
34030;SDS011;20319;28.466;-16.274;2023-11-21T20:54:05;2.72;;;1.15;;
34030;SDS011;20319;28.466;-16.274;2023-11-21T20:56:31;2.45;;;0.90;;
34030;SDS011;20319;28.466;-16.274;2023-11-21T20:58:57;2.05;;;0.85;;
34030;SDS011;20319;28.466;-16.274;2023-11-21T21:01:30;3.40;;;1.20;;
34030;SDS011;20319;28.466;-16.274;2023-11-21T21:03:55;4.97;;;1.08;;
34030;SDS011;20319;28.466;-16.274;2023-11-21T21:06:21;2.58;;;1.10;;
34030;SDS011;20319;28.466;-16.274;2023-11-21T21:08:47;5.95;;;1.33;;
34030;SDS011;20319;28.466;-16.274;2023-11-21T21:11:16;2.25;;;0.90;;
34030;SDS011;20319;28.466;-16.274;2023-11-21T21:13:42;4.40;;;1.13;;
34030;SDS011;20319;28.466;-16.274;2023-11-21T21:16:08;3.88;;;1.05;;
34030;SDS011;20319;28.466;-16.274;2023-11-21T21:18:34;3.85;;;1.20;;
34030;SDS011;20319;28.466;-16.274;2023-11-21T21:21:00;3.58;;;1.17;;
34030;SDS011;20319;28.466;-16.274;2023-11-21T21:23:27;2.97;;;1.00;;
34030;SDS011;20319;28.466;-16.274;2023-11-21T21:25:53;3.35;;;1.20;;
34030;SDS011;20319;28.466;-16.274;2023-11-21T21:28:21;2.53;;;0.95;;
34030;SDS011;20319;28.466;-16.274;2023-11-21T21:30:46;1.65;;;1.00;;
34030;SDS011;20319;28.466;-16.274;2023-11-21T21:33:12;2.15;;;1.30;;
34030;SDS011;20319;28.466;-16.274;2023-11-21T21:35:38;4.50;;;1.10;;
34030;SDS011;20319;28.466;-16.274;2023-11-21T21:38:03;4.72;;;1.20;;
34030;SDS011;20319;28.466;-16.274;2023-11-21T21:40:29;2.42;;;1.00;;
34030;SDS011;20319;28.466;-16.274;2023-11-21T21:42:58;3.13;;;1.50;;
34030;SDS011;20319;28.466;-16.274;2023-11-21T21:45:24;5.45;;;1.65;;
34030;SDS011;20319;28.466;-16.274;2023-11-21T21:47:50;2.95;;;1.20;;
34030;SDS011;20319;28.466;-16.274;2023-11-21T21:50:16;1.52;;;1.15;;
34030;SDS011;20319;28.466;-16.274;2023-11-21T21:52:44;2.10;;;1.20;;
34030;SDS011;20319;28.466;-16.274;2023-11-21T21:55:10;1.50;;;1.27;;
34030;SDS011;20319;28.466;-16.274;2023-11-21T21:57:41;4.53;;;1.13;;
34030;SDS011;20319;28.466;-16.274;2023-11-21T22:00:08;2.95;;;1.08;;
34030;SDS011;20319;28.466;-16.274;2023-11-21T22:02:35;4.80;;;1.70;;
34030;SDS011;20319;28.466;-16.274;2023-11-21T22:05:01;3.05;;;1.40;;
34030;SDS011;20319;28.466;-16.274;2023-11-21T22:07:27;2.78;;;1.35;;
34030;SDS011;20319;28.466;-16.274;2023-11-21T22:09:53;3.97;;;1.70;;
34030;SDS011;20319;28.466;-16.274;2023-11-21T22:12:21;3.70;;;1.70;;
34030;SDS011;20319;28.466;-16.274;2023-11-21T22:14:46;3.67;;;1.70;;
